sensor_id;sensor_type;location;lat;lon;timestamp;temperature;humidity
54082;DHT22;39986;50.770;0.266;2023-06-10T00:00:11;19.00;99.90
54082;DHT22;39986;50.770;0.266;2023-06-10T00:02:39;19.10;99.90
54082;DHT22;39986;50.770;0.266;2023-06-10T00:05:05;19.10;99.90
54082;DHT22;39986;50.770;0.266;2023-06-10T00:07:31;19.10;99.90
54082;DHT22;39986;50.770;0.266;2023-06-10T00:09:56;19.10;99.90
54082;DHT22;39986;50.770;0.266;2023-06-10T00:12:22;19.10;99.90
54082;DHT22;39986;50.770;0.266;2023-06-10T00:14:48;19.00;99.90
54082;DHT22;39986;50.770;0.266;2023-06-10T00:17:15;19.00;99.90
54082;DHT22;39986;50.770;0.266;2023-06-10T00:19:41;19.00;99.90
54082;DHT22;39986;50.770;0.266;2023-06-10T00:22:06;19.10;99.90
54082;DHT22;39986;50.770;0.266;2023-06-10T00:24:32;19.00;99.90
54082;DHT22;39986;50.770;0.266;2023-06-10T00:26:57;19.00;99.90
54082;DHT22;39986;50.770;0.266;2023-06-10T00:29:23;19.00;99.90
54082;DHT22;39986;50.770;0.266;2023-06-10T00:31:48;19.00;99.90
54082;DHT22;39986;50.770;0.266;2023-06-10T00:34:14;19.00;99.90
54082;DHT22;39986;50.770;0.266;2023-06-10T00:36:39;19.00;99.90
54082;DHT22;39986;50.770;0.266;2023-06-10T00:39:05;18.90;99.90
54082;DHT22;39986;50.770;0.266;2023-06-10T00:41:30;19.00;99.90
54082;DHT22;39986;50.770;0.266;2023-06-10T00:43:56;19.00;99.90
54082;DHT22;39986;50.770;0.266;2023-06-10T00:46:22;18.90;99.90
54082;DHT22;39986;50.770;0.266;2023-06-10T00:48:48;19.00;99.90
54082;DHT22;39986;50.770;0.266;2023-06-10T00:51:15;19.00;99.90
54082;DHT22;39986;50.770;0.266;2023-06-10T00:53:41;18.90;99.90
54082;DHT22;39986;50.770;0.266;2023-06-10T00:56:06;18.80;99.90
54082;DHT22;39986;50.770;0.266;2023-06-10T00:58:32;18.80;99.90
54082;DHT22;39986;50.770;0.266;2023-06-10T01:00:58;18.80;99.90
54082;DHT22;39986;50.770;0.266;2023-06-10T01:03:24;18.80;99.90
54082;DHT22;39986;50.770;0.266;2023-06-10T01:05:56;18.80;99.90
54082;DHT22;39986;50.770;0.266;2023-06-10T01:08:35;18.70;99.90
54082;DHT22;39986;50.770;0.266;2023-06-10T01:11:04;18.80;99.90
54082;DHT22;39986;50.770;0.266;2023-06-10T01:13:32;18.80;99.90
54082;DHT22;39986;50.770;0.266;2023-06-10T01:16:00;18.80;99.90
54082;DHT22;39986;50.770;0.266;2023-06-10T01:18:31;18.80;99.90
54082;DHT22;39986;50.770;0.266;2023-06-10T01:20:57;18.70;99.90
54082;DHT22;39986;50.770;0.266;2023-06-10T01:23:23;18.80;99.90
54082;DHT22;39986;50.770;0.266;2023-06-10T01:26:00;18.80;99.90
54082;DHT22;39986;50.770;0.266;2023-06-10T01:28:40;18.80;99.90
54082;DHT22;39986;50.770;0.266;2023-06-10T01:31:20;18.80;99.90
54082;DHT22;39986;50.770;0.266;2023-06-10T01:33:50;18.70;99.90
54082;DHT22;39986;50.770;0.266;2023-06-10T01:36:16;18.70;99.90
54082;DHT22;39986;50.770;0.266;2023-06-10T01:38:44;18.70;99.90
54082;DHT22;39986;50.770;0.266;2023-06-10T01:41:13;18.70;99.90
54082;DHT22;39986;50.770;0.266;2023-06-10T01:43:39;18.70;99.90
54082;DHT22;39986;50.770;0.266;2023-06-10T01:46:05;18.60;99.90
54082;DHT22;39986;50.770;0.266;2023-06-10T01:48:31;18.70;99.90
54082;DHT22;39986;50.770;0.266;2023-06-10T01:50:57;18.60;99.90
54082;DHT22;39986;50.770;0.266;2023-06-10T01:53:22;18.70;99.90
54082;DHT22;39986;50.770;0.266;2023-06-10T01:55:48;18.60;99.90
54082;DHT22;39986;50.770;0.266;2023-06-10T01:58:13;18.60;99.90
54082;DHT22;39986;50.770;0.266;2023-06-10T02:00:39;18.60;99.90
54082;DHT22;39986;50.770;0.266;2023-06-10T02:03:04;18.60;99.90
54082;DHT22;39986;50.770;0.266;2023-06-10T02:05:30;18.60;99.90
54082;DHT22;39986;50.770;0.266;2023-06-10T02:07:55;18.60;99.90
54082;DHT22;39986;50.770;0.266;2023-06-10T02:10:21;18.60;99.90
54082;DHT22;39986;50.770;0.266;2023-06-10T02:12:47;18.60;99.90
54082;DHT22;39986;50.770;0.266;2023-06-10T02:15:12;18.60;99.90
54082;DHT22;39986;50.770;0.266;2023-06-10T02:17:38;18.50;99.90
54082;DHT22;39986;50.770;0.266;2023-06-10T02:20:04;18.50;99.90
54082;DHT22;39986;50.770;0.266;2023-06-10T02:22:32;18.50;99.90
54082;DHT22;39986;50.770;0.266;2023-06-10T02:24:58;18.50;99.90
54082;DHT22;39986;50.770;0.266;2023-06-10T02:27:23;18.40;99.90
54082;DHT22;39986;50.770;0.266;2023-06-10T02:29:49;18.30;99.90
54082;DHT22;39986;50.770;0.266;2023-06-10T02:32:14;18.30;99.90
54082;DHT22;39986;50.770;0.266;2023-06-10T02:34:40;18.30;99.90
54082;DHT22;39986;50.770;0.266;2023-06-10T02:37:08;18.30;99.90
54082;DHT22;39986;50.770;0.266;2023-06-10T02:39:33;18.30;99.90
54082;DHT22;39986;50.770;0.266;2023-06-10T02:41:59;18.30;99.90
54082;DHT22;39986;50.770;0.266;2023-06-10T02:44:24;18.30;99.90
54082;DHT22;39986;50.770;0.266;2023-06-10T02:46:50;18.20;99.90
54082;DHT22;39986;50.770;0.266;2023-06-10T02:49:15;18.20;99.90
54082;DHT22;39986;50.770;0.266;2023-06-10T02:51:41;18.20;99.90
54082;DHT22;39986;50.770;0.266;2023-06-10T02:54:07;18.20;99.90
54082;DHT22;39986;50.770;0.266;2023-06-10T02:56:32;18.30;99.90
54082;DHT22;39986;50.770;0.266;2023-06-10T02:58:58;18.20;99.90
54082;DHT22;39986;50.770;0.266;2023-06-10T03:01:26;18.20;99.90
54082;DHT22;39986;50.770;0.266;2023-06-10T03:03:51;18.20;99.90
54082;DHT22;39986;50.770;0.266;2023-06-10T03:06:17;18.10;99.90
54082;DHT22;39986;50.770;0.266;2023-06-10T03:08:43;18.10;99.90
54082;DHT22;39986;50.770;0.266;2023-06-10T03:11:09;18.10;99.90
54082;DHT22;39986;50.770;0.266;2023-06-10T03:13:35;18.10;99.90
54082;DHT22;39986;50.770;0.266;2023-06-10T03:16:01;18.10;99.90
54082;DHT22;39986;50.770;0.266;2023-06-10T03:18:28;18.00;99.90
54082;DHT22;39986;50.770;0.266;2023-06-10T03:20:56;18.00;99.90
54082;DHT22;39986;50.770;0.266;2023-06-10T03:23:22;18.10;99.90
54082;DHT22;39986;50.770;0.266;2023-06-10T03:25:48;18.00;99.90
54082;DHT22;39986;50.770;0.266;2023-06-10T03:28:13;18.10;99.90
54082;DHT22;39986;50.770;0.266;2023-06-10T03:30:39;18.00;99.90
54082;DHT22;39986;50.770;0.266;2023-06-10T03:33:04;18.10;99.90
54082;DHT22;39986;50.770;0.266;2023-06-10T03:35:30;18.00;99.90
54082;DHT22;39986;50.770;0.266;2023-06-10T03:37:58;18.00;99.90
54082;DHT22;39986;50.770;0.266;2023-06-10T03:40:23;17.90;99.90
54082;DHT22;39986;50.770;0.266;2023-06-10T03:42:49;17.90;99.90
54082;DHT22;39986;50.770;0.266;2023-06-10T03:45:14;17.90;99.90
54082;DHT22;39986;50.770;0.266;2023-06-10T03:47:40;18.00;99.90
54082;DHT22;39986;50.770;0.266;2023-06-10T03:50:06;17.90;99.90
54082;DHT22;39986;50.770;0.266;2023-06-10T03:52:32;18.00;99.90
54082;DHT22;39986;50.770;0.266;2023-06-10T03:54:57;17.90;99.90
54082;DHT22;39986;50.770;0.266;2023-06-10T03:57:23;17.90;99.90
54082;DHT22;39986;50.770;0.266;2023-06-10T03:59:48;17.90;99.90
54082;DHT22;39986;50.770;0.266;2023-06-10T04:02:14;17.90;99.90
54082;DHT22;39986;50.770;0.266;2023-06-10T04:04:40;17.90;99.90
54082;DHT22;39986;50.770;0.266;2023-06-10T04:07:06;17.90;99.90
54082;DHT22;39986;50.770;0.266;2023-06-10T04:09:31;17.90;99.90
54082;DHT22;39986;50.770;0.266;2023-06-10T04:11:57;17.90;99.90
54082;DHT22;39986;50.770;0.266;2023-06-10T04:14:22;17.90;99.90
54082;DHT22;39986;50.770;0.266;2023-06-10T04:16:49;18.00;99.90
54082;DHT22;39986;50.770;0.266;2023-06-10T04:19:15;18.00;99.90
54082;DHT22;39986;50.770;0.266;2023-06-10T04:21:41;18.00;99.90
54082;DHT22;39986;50.770;0.266;2023-06-10T04:24:07;18.00;99.90
54082;DHT22;39986;50.770;0.266;2023-06-10T04:26:35;18.00;99.90
54082;DHT22;39986;50.770;0.266;2023-06-10T04:29:00;18.00;99.90
54082;DHT22;39986;50.770;0.266;2023-06-10T04:31:26;18.00;99.90
54082;DHT22;39986;50.770;0.266;2023-06-10T04:33:51;18.10;99.90
54082;DHT22;39986;50.770;0.266;2023-06-10T04:36:17;18.20;99.90
54082;DHT22;39986;50.770;0.266;2023-06-10T04:38:42;18.20;99.90
54082;DHT22;39986;50.770;0.266;2023-06-10T04:41:08;18.30;99.90
54082;DHT22;39986;50.770;0.266;2023-06-10T04:43:34;18.20;99.90
54082;DHT22;39986;50.770;0.266;2023-06-10T04:45:59;18.30;99.90
54082;DHT22;39986;50.770;0.266;2023-06-10T04:48:25;18.40;99.90
54082;DHT22;39986;50.770;0.266;2023-06-10T04:50:50;18.40;99.90
54082;DHT22;39986;50.770;0.266;2023-06-10T04:53:16;18.50;99.90
54082;DHT22;39986;50.770;0.266;2023-06-10T04:55:42;18.50;99.90
54082;DHT22;39986;50.770;0.266;2023-06-10T04:58:07;18.60;99.90
54082;DHT22;39986;50.770;0.266;2023-06-10T05:00:33;18.80;99.90
54082;DHT22;39986;50.770;0.266;2023-06-10T05:02:58;18.80;99.90
54082;DHT22;39986;50.770;0.266;2023-06-10T05:05:24;18.80;99.90
54082;DHT22;39986;50.770;0.266;2023-06-10T05:07:49;18.90;99.90
54082;DHT22;39986;50.770;0.266;2023-06-10T05:10:15;18.90;99.90
54082;DHT22;39986;50.770;0.266;2023-06-10T05:12:40;19.00;99.90
54082;DHT22;39986;50.770;0.266;2023-06-10T05:15:06;19.10;99.90
54082;DHT22;39986;50.770;0.266;2023-06-10T05:17:32;19.20;99.90
54082;DHT22;39986;50.770;0.266;2023-06-10T05:19:57;19.30;99.90
54082;DHT22;39986;50.770;0.266;2023-06-10T05:22:23;19.40;99.90
54082;DHT22;39986;50.770;0.266;2023-06-10T05:24:50;19.50;99.90
54082;DHT22;39986;50.770;0.266;2023-06-10T05:27:16;19.40;99.90
54082;DHT22;39986;50.770;0.266;2023-06-10T05:29:42;19.60;99.90
54082;DHT22;39986;50.770;0.266;2023-06-10T05:32:07;19.70;99.90
54082;DHT22;39986;50.770;0.266;2023-06-10T05:34:33;19.70;99.90
54082;DHT22;39986;50.770;0.266;2023-06-10T05:36:59;19.80;99.90
54082;DHT22;39986;50.770;0.266;2023-06-10T05:39:24;19.90;99.90
54082;DHT22;39986;50.770;0.266;2023-06-10T05:41:50;19.90;99.90
54082;DHT22;39986;50.770;0.266;2023-06-10T05:44:16;20.00;99.90
54082;DHT22;39986;50.770;0.266;2023-06-10T05:46:41;20.10;99.90
54082;DHT22;39986;50.770;0.266;2023-06-10T05:49:07;20.20;99.90
54082;DHT22;39986;50.770;0.266;2023-06-10T05:51:32;20.20;99.90
54082;DHT22;39986;50.770;0.266;2023-06-10T05:53:58;20.30;99.90
54082;DHT22;39986;50.770;0.266;2023-06-10T05:56:23;20.40;99.90
54082;DHT22;39986;50.770;0.266;2023-06-10T05:58:51;20.60;99.90
54082;DHT22;39986;50.770;0.266;2023-06-10T06:01:16;20.60;99.90
54082;DHT22;39986;50.770;0.266;2023-06-10T06:03:42;20.70;99.90
54082;DHT22;39986;50.770;0.266;2023-06-10T06:06:07;20.80;99.90
54082;DHT22;39986;50.770;0.266;2023-06-10T06:08:33;20.90;99.90
54082;DHT22;39986;50.770;0.266;2023-06-10T06:10:58;21.00;99.90
54082;DHT22;39986;50.770;0.266;2023-06-10T06:13:24;21.10;99.90
54082;DHT22;39986;50.770;0.266;2023-06-10T06:15:50;21.10;99.90
54082;DHT22;39986;50.770;0.266;2023-06-10T06:18:15;21.20;99.90
54082;DHT22;39986;50.770;0.266;2023-06-10T06:20:41;21.30;99.90
54082;DHT22;39986;50.770;0.266;2023-06-10T06:23:07;21.40;99.90
54082;DHT22;39986;50.770;0.266;2023-06-10T06:25:35;21.40;99.90
54082;DHT22;39986;50.770;0.266;2023-06-10T06:28:01;21.60;99.90
54082;DHT22;39986;50.770;0.266;2023-06-10T06:30:27;21.60;99.90
54082;DHT22;39986;50.770;0.266;2023-06-10T06:32:52;21.80;99.90
54082;DHT22;39986;50.770;0.266;2023-06-10T06:35:18;21.90;99.90
54082;DHT22;39986;50.770;0.266;2023-06-10T06:37:44;22.00;99.90
54082;DHT22;39986;50.770;0.266;2023-06-10T06:40:09;22.00;99.90
54082;DHT22;39986;50.770;0.266;2023-06-10T06:42:35;22.20;99.90
54082;DHT22;39986;50.770;0.266;2023-06-10T06:45:01;22.30;99.90
54082;DHT22;39986;50.770;0.266;2023-06-10T06:47:26;22.30;99.90
54082;DHT22;39986;50.770;0.266;2023-06-10T06:49:52;22.40;99.90
54082;DHT22;39986;50.770;0.266;2023-06-10T06:52:17;22.50;99.90
54082;DHT22;39986;50.770;0.266;2023-06-10T06:54:44;22.50;99.90
54082;DHT22;39986;50.770;0.266;2023-06-10T06:57:09;22.60;99.90
54082;DHT22;39986;50.770;0.266;2023-06-10T06:59:36;22.70;99.90
54082;DHT22;39986;50.770;0.266;2023-06-10T07:02:02;22.80;99.90
54082;DHT22;39986;50.770;0.266;2023-06-10T07:04:28;23.00;99.90
54082;DHT22;39986;50.770;0.266;2023-06-10T07:06:54;23.10;99.90
54082;DHT22;39986;50.770;0.266;2023-06-10T07:09:19;23.20;99.90
54082;DHT22;39986;50.770;0.266;2023-06-10T07:11:45;23.30;99.90
54082;DHT22;39986;50.770;0.266;2023-06-10T07:14:10;23.30;99.90
54082;DHT22;39986;50.770;0.266;2023-06-10T07:16:36;23.40;99.90
54082;DHT22;39986;50.770;0.266;2023-06-10T07:19:01;23.40;99.90
54082;DHT22;39986;50.770;0.266;2023-06-10T07:21:27;23.40;99.90
54082;DHT22;39986;50.770;0.266;2023-06-10T07:23:54;23.50;99.90
54082;DHT22;39986;50.770;0.266;2023-06-10T07:26:21;23.60;99.90
54082;DHT22;39986;50.770;0.266;2023-06-10T07:28:46;23.50;99.90
54082;DHT22;39986;50.770;0.266;2023-06-10T07:31:12;23.60;99.90
54082;DHT22;39986;50.770;0.266;2023-06-10T07:33:38;23.60;99.90
54082;DHT22;39986;50.770;0.266;2023-06-10T07:36:05;23.60;99.90
54082;DHT22;39986;50.770;0.266;2023-06-10T07:38:30;23.60;99.90
54082;DHT22;39986;50.770;0.266;2023-06-10T07:40:56;23.50;99.90
54082;DHT22;39986;50.770;0.266;2023-06-10T07:43:22;23.50;99.90
54082;DHT22;39986;50.770;0.266;2023-06-10T07:45:47;23.60;99.90
54082;DHT22;39986;50.770;0.266;2023-06-10T07:48:13;23.50;99.90
54082;DHT22;39986;50.770;0.266;2023-06-10T07:50:39;23.50;99.90
54082;DHT22;39986;50.770;0.266;2023-06-10T07:53:05;23.50;99.90
54082;DHT22;39986;50.770;0.266;2023-06-10T07:55:31;23.60;99.90
54082;DHT22;39986;50.770;0.266;2023-06-10T07:57:56;23.60;99.90
54082;DHT22;39986;50.770;0.266;2023-06-10T08:00:22;23.60;99.90
54082;DHT22;39986;50.770;0.266;2023-06-10T08:02:48;23.80;99.90
54082;DHT22;39986;50.770;0.266;2023-06-10T08:05:13;23.80;99.90
54082;DHT22;39986;50.770;0.266;2023-06-10T08:07:39;24.00;99.90
54082;DHT22;39986;50.770;0.266;2023-06-10T08:10:05;24.00;99.90
54082;DHT22;39986;50.770;0.266;2023-06-10T08:12:31;24.00;99.90
54082;DHT22;39986;50.770;0.266;2023-06-10T08:14:57;24.00;99.90
54082;DHT22;39986;50.770;0.266;2023-06-10T08:17:22;23.90;99.90
54082;DHT22;39986;50.770;0.266;2023-06-10T08:19:48;23.80;99.90
54082;DHT22;39986;50.770;0.266;2023-06-10T08:22:14;24.00;99.90
54082;DHT22;39986;50.770;0.266;2023-06-10T08:24:40;24.20;99.90
54082;DHT22;39986;50.770;0.266;2023-06-10T08:27:05;24.30;99.90
54082;DHT22;39986;50.770;0.266;2023-06-10T08:29:31;24.40;99.90
54082;DHT22;39986;50.770;0.266;2023-06-10T08:31:57;24.60;99.90
54082;DHT22;39986;50.770;0.266;2023-06-10T08:34:22;24.60;99.90
54082;DHT22;39986;50.770;0.266;2023-06-10T08:36:48;24.40;99.90
54082;DHT22;39986;50.770;0.266;2023-06-10T08:39:18;24.30;99.90
54082;DHT22;39986;50.770;0.266;2023-06-10T08:41:47;24.20;99.90
54082;DHT22;39986;50.770;0.266;2023-06-10T08:44:28;24.20;99.90
54082;DHT22;39986;50.770;0.266;2023-06-10T08:46:53;24.20;99.90
54082;DHT22;39986;50.770;0.266;2023-06-10T08:49:20;24.00;99.90
54082;DHT22;39986;50.770;0.266;2023-06-10T08:51:51;23.90;99.90
54082;DHT22;39986;50.770;0.266;2023-06-10T08:54:20;24.00;99.90
54082;DHT22;39986;50.770;0.266;2023-06-10T08:56:48;24.10;99.90
54082;DHT22;39986;50.770;0.266;2023-06-10T08:59:14;24.20;99.90
54082;DHT22;39986;50.770;0.266;2023-06-10T09:01:42;24.30;99.90
54082;DHT22;39986;50.770;0.266;2023-06-10T09:04:07;24.20;99.90
54082;DHT22;39986;50.770;0.266;2023-06-10T09:06:33;24.20;99.90
54082;DHT22;39986;50.770;0.266;2023-06-10T09:08:59;24.30;99.90
54082;DHT22;39986;50.770;0.266;2023-06-10T09:11:25;24.20;99.90
54082;DHT22;39986;50.770;0.266;2023-06-10T09:13:50;24.30;99.90
54082;DHT22;39986;50.770;0.266;2023-06-10T09:16:16;24.40;99.90
54082;DHT22;39986;50.770;0.266;2023-06-10T09:18:42;24.20;99.90
54082;DHT22;39986;50.770;0.266;2023-06-10T09:21:07;24.10;99.90
54082;DHT22;39986;50.770;0.266;2023-06-10T09:23:33;24.20;99.90
54082;DHT22;39986;50.770;0.266;2023-06-10T09:25:59;24.40;99.90
54082;DHT22;39986;50.770;0.266;2023-06-10T09:28:25;24.70;99.90
54082;DHT22;39986;50.770;0.266;2023-06-10T09:31:00;24.90;99.90
54082;DHT22;39986;50.770;0.266;2023-06-10T09:33:26;25.00;99.90
54082;DHT22;39986;50.770;0.266;2023-06-10T09:35:52;25.10;99.90
54082;DHT22;39986;50.770;0.266;2023-06-10T09:38:21;24.90;99.90
54082;DHT22;39986;50.770;0.266;2023-06-10T09:40:53;24.80;99.90
54082;DHT22;39986;50.770;0.266;2023-06-10T09:43:19;24.70;99.90
54082;DHT22;39986;50.770;0.266;2023-06-10T09:45:47;24.90;99.90
54082;DHT22;39986;50.770;0.266;2023-06-10T09:48:12;25.20;99.90
54082;DHT22;39986;50.770;0.266;2023-06-10T09:50:41;25.40;99.90
54082;DHT22;39986;50.770;0.266;2023-06-10T09:53:07;25.80;99.90
54082;DHT22;39986;50.770;0.266;2023-06-10T09:55:33;25.90;99.90
54082;DHT22;39986;50.770;0.266;2023-06-10T09:57:59;25.90;99.90
54082;DHT22;39986;50.770;0.266;2023-06-10T10:00:25;25.90;99.90
54082;DHT22;39986;50.770;0.266;2023-06-10T10:02:52;26.00;99.90
54082;DHT22;39986;50.770;0.266;2023-06-10T10:05:19;25.60;99.90
54082;DHT22;39986;50.770;0.266;2023-06-10T10:07:45;25.30;99.90
54082;DHT22;39986;50.770;0.266;2023-06-10T10:10:11;25.40;99.90
54082;DHT22;39986;50.770;0.266;2023-06-10T10:12:38;25.50;99.90
54082;DHT22;39986;50.770;0.266;2023-06-10T10:15:03;25.50;99.90
54082;DHT22;39986;50.770;0.266;2023-06-10T10:17:30;25.20;99.90
54082;DHT22;39986;50.770;0.266;2023-06-10T10:20:03;25.20;99.90
54082;DHT22;39986;50.770;0.266;2023-06-10T10:22:37;25.40;99.90
54082;DHT22;39986;50.770;0.266;2023-06-10T10:25:05;25.80;99.90
54082;DHT22;39986;50.770;0.266;2023-06-10T10:27:44;26.30;99.90
54082;DHT22;39986;50.770;0.266;2023-06-10T10:30:13;26.60;99.90
54082;DHT22;39986;50.770;0.266;2023-06-10T10:32:50;26.80;99.90
54082;DHT22;39986;50.770;0.266;2023-06-10T10:35:17;27.10;99.90
54082;DHT22;39986;50.770;0.266;2023-06-10T10:37:44;27.20;99.90
54082;DHT22;39986;50.770;0.266;2023-06-10T10:40:10;27.30;99.90
54082;DHT22;39986;50.770;0.266;2023-06-10T10:42:36;27.30;99.90
54082;DHT22;39986;50.770;0.266;2023-06-10T10:45:03;27.30;99.90
54082;DHT22;39986;50.770;0.266;2023-06-10T10:47:29;26.80;99.90
54082;DHT22;39986;50.770;0.266;2023-06-10T10:49:56;26.60;99.90
54082;DHT22;39986;50.770;0.266;2023-06-10T10:52:25;26.70;99.90
54082;DHT22;39986;50.770;0.266;2023-06-10T10:54:52;27.10;99.90
54082;DHT22;39986;50.770;0.266;2023-06-10T10:57:18;27.00;99.90
54082;DHT22;39986;50.770;0.266;2023-06-10T10:59:54;26.80;99.90
54082;DHT22;39986;50.770;0.266;2023-06-10T11:04:56;27.60;99.90
54082;DHT22;39986;50.770;0.266;2023-06-10T11:07:24;28.60;99.90
54082;DHT22;39986;50.770;0.266;2023-06-10T11:09:59;30.70;99.90
54082;DHT22;39986;50.770;0.266;2023-06-10T11:12:25;33.60;99.90
54082;DHT22;39986;50.770;0.266;2023-06-10T11:14:54;35.30;95.20
54082;DHT22;39986;50.770;0.266;2023-06-10T11:17:21;35.90;92.80
54082;DHT22;39986;50.770;0.266;2023-06-10T11:19:46;36.30;90.90
54082;DHT22;39986;50.770;0.266;2023-06-10T11:22:16;37.50;87.40
54082;DHT22;39986;50.770;0.266;2023-06-10T11:24:42;37.80;85.40
54082;DHT22;39986;50.770;0.266;2023-06-10T11:32:28;38.80;76.80
54082;DHT22;39986;50.770;0.266;2023-06-10T11:34:54;36.50;80.20
54082;DHT22;39986;50.770;0.266;2023-06-10T11:37:21;34.50;84.60
54082;DHT22;39986;50.770;0.266;2023-06-10T11:39:46;33.40;89.80
54082;DHT22;39986;50.770;0.266;2023-06-10T11:42:12;32.30;91.80
54082;DHT22;39986;50.770;0.266;2023-06-10T11:44:38;31.60;94.40
54082;DHT22;39986;50.770;0.266;2023-06-10T11:47:04;32.00;95.60
54082;DHT22;39986;50.770;0.266;2023-06-10T11:49:29;33.20;94.20
54082;DHT22;39986;50.770;0.266;2023-06-10T11:51:55;35.30;91.10
54082;DHT22;39986;50.770;0.266;2023-06-10T11:54:21;36.00;87.40
54082;DHT22;39986;50.770;0.266;2023-06-10T11:56:47;35.20;90.00
54082;DHT22;39986;50.770;0.266;2023-06-10T11:59:16;35.50;88.60
54082;DHT22;39986;50.770;0.266;2023-06-10T12:01:43;36.10;86.50
54082;DHT22;39986;50.770;0.266;2023-06-10T12:04:10;36.90;84.90
54082;DHT22;39986;50.770;0.266;2023-06-10T12:06:43;35.70;85.30
54082;DHT22;39986;50.770;0.266;2023-06-10T12:11:50;35.60;85.30
54082;DHT22;39986;50.770;0.266;2023-06-10T12:14:16;35.60;86.90
54082;DHT22;39986;50.770;0.266;2023-06-10T12:16:48;36.40;85.20
54082;DHT22;39986;50.770;0.266;2023-06-10T12:19:13;38.10;79.90
54082;DHT22;39986;50.770;0.266;2023-06-10T12:21:39;39.80;75.80
54082;DHT22;39986;50.770;0.266;2023-06-10T12:24:05;39.90;72.90
54082;DHT22;39986;50.770;0.266;2023-06-10T12:26:38;39.60;71.70
54082;DHT22;39986;50.770;0.266;2023-06-10T12:32:00;41.30;67.00
54082;DHT22;39986;50.770;0.266;2023-06-10T12:34:29;41.30;64.20
54082;DHT22;39986;50.770;0.266;2023-06-10T12:36:55;41.70;63.30
54082;DHT22;39986;50.770;0.266;2023-06-10T12:39:21;41.00;63.30
54082;DHT22;39986;50.770;0.266;2023-06-10T12:41:49;41.60;61.50
54082;DHT22;39986;50.770;0.266;2023-06-10T12:44:16;40.90;62.30
54082;DHT22;39986;50.770;0.266;2023-06-10T12:46:41;40.80;61.10
54082;DHT22;39986;50.770;0.266;2023-06-10T12:49:07;41.20;60.70
54082;DHT22;39986;50.770;0.266;2023-06-10T12:51:32;41.70;60.50
54082;DHT22;39986;50.770;0.266;2023-06-10T12:53:59;41.60;59.40
54082;DHT22;39986;50.770;0.266;2023-06-10T12:56:25;40.30;61.20
54082;DHT22;39986;50.770;0.266;2023-06-10T12:58:50;38.60;64.30
54082;DHT22;39986;50.770;0.266;2023-06-10T13:01:16;37.10;68.70
54082;DHT22;39986;50.770;0.266;2023-06-10T13:03:42;36.50;69.20
54082;DHT22;39986;50.770;0.266;2023-06-10T13:06:07;36.30;70.70
54082;DHT22;39986;50.770;0.266;2023-06-10T13:08:33;36.30;72.30
54082;DHT22;39986;50.770;0.266;2023-06-10T13:10:58;36.20;72.90
54082;DHT22;39986;50.770;0.266;2023-06-10T13:13:24;37.60;71.10
54082;DHT22;39986;50.770;0.266;2023-06-10T13:15:51;38.80;68.80
54082;DHT22;39986;50.770;0.266;2023-06-10T13:18:17;38.80;67.70
54082;DHT22;39986;50.770;0.266;2023-06-10T13:20:44;38.10;68.90
54082;DHT22;39986;50.770;0.266;2023-06-10T13:23:09;37.70;68.20
54082;DHT22;39986;50.770;0.266;2023-06-10T13:25:35;37.40;69.60
54082;DHT22;39986;50.770;0.266;2023-06-10T13:28:01;36.90;70.10
54082;DHT22;39986;50.770;0.266;2023-06-10T13:30:26;36.00;72.60
54082;DHT22;39986;50.770;0.266;2023-06-10T13:32:52;35.60;73.00
54082;DHT22;39986;50.770;0.266;2023-06-10T13:35:18;36.00;72.60
54082;DHT22;39986;50.770;0.266;2023-06-10T13:37:43;35.40;71.60
54082;DHT22;39986;50.770;0.266;2023-06-10T13:40:09;35.60;72.60
54082;DHT22;39986;50.770;0.266;2023-06-10T13:42:35;36.50;70.40
54082;DHT22;39986;50.770;0.266;2023-06-10T13:45:01;37.30;67.90
54082;DHT22;39986;50.770;0.266;2023-06-10T13:47:27;37.80;68.10
54082;DHT22;39986;50.770;0.266;2023-06-10T13:49:53;38.20;67.60
54082;DHT22;39986;50.770;0.266;2023-06-10T13:52:19;37.90;67.00
54082;DHT22;39986;50.770;0.266;2023-06-10T13:54:44;37.00;67.50
54082;DHT22;39986;50.770;0.266;2023-06-10T13:57:10;37.70;67.80
54082;DHT22;39986;50.770;0.266;2023-06-10T13:59:36;38.30;66.30
54082;DHT22;39986;50.770;0.266;2023-06-10T14:02:01;39.10;64.70
54082;DHT22;39986;50.770;0.266;2023-06-10T14:04:27;37.10;66.10
54082;DHT22;39986;50.770;0.266;2023-06-10T14:06:52;35.60;71.80
54082;DHT22;39986;50.770;0.266;2023-06-10T14:09:18;35.80;70.70
54082;DHT22;39986;50.770;0.266;2023-06-10T14:11:44;35.10;72.30
54082;DHT22;39986;50.770;0.266;2023-06-10T14:14:09;34.80;74.10
54082;DHT22;39986;50.770;0.266;2023-06-10T14:16:35;36.20;72.60
54082;DHT22;39986;50.770;0.266;2023-06-10T14:19:01;36.30;71.20
54082;DHT22;39986;50.770;0.266;2023-06-10T14:21:26;36.10;71.30
54082;DHT22;39986;50.770;0.266;2023-06-10T14:23:52;36.70;69.90
54082;DHT22;39986;50.770;0.266;2023-06-10T14:26:18;35.80;72.30
54082;DHT22;39986;50.770;0.266;2023-06-10T14:28:44;35.90;73.00
54082;DHT22;39986;50.770;0.266;2023-06-10T14:31:10;36.00;73.00
54082;DHT22;39986;50.770;0.266;2023-06-10T14:33:36;36.20;73.40
54082;DHT22;39986;50.770;0.266;2023-06-10T14:36:01;36.10;73.20
54082;DHT22;39986;50.770;0.266;2023-06-10T14:38:27;35.90;73.60
54082;DHT22;39986;50.770;0.266;2023-06-10T14:40:53;34.60;76.50
54082;DHT22;39986;50.770;0.266;2023-06-10T14:43:18;33.00;81.30
54082;DHT22;39986;50.770;0.266;2023-06-10T14:45:44;32.10;86.00
54082;DHT22;39986;50.770;0.266;2023-06-10T14:48:10;30.50;92.40
54082;DHT22;39986;50.770;0.266;2023-06-10T14:50:36;29.60;97.40
54082;DHT22;39986;50.770;0.266;2023-06-10T14:53:02;29.10;99.00
54082;DHT22;39986;50.770;0.266;2023-06-10T14:55:27;28.90;99.90
54082;DHT22;39986;50.770;0.266;2023-06-10T14:57:53;28.90;99.90
54082;DHT22;39986;50.770;0.266;2023-06-10T15:00:18;28.80;99.90
54082;DHT22;39986;50.770;0.266;2023-06-10T15:02:49;28.70;99.90
54082;DHT22;39986;50.770;0.266;2023-06-10T15:05:14;28.20;99.90
54082;DHT22;39986;50.770;0.266;2023-06-10T15:07:41;28.00;99.90
54082;DHT22;39986;50.770;0.266;2023-06-10T15:10:07;27.80;99.90
54082;DHT22;39986;50.770;0.266;2023-06-10T15:12:32;27.50;99.90
54082;DHT22;39986;50.770;0.266;2023-06-10T15:14:58;27.50;99.90
54082;DHT22;39986;50.770;0.266;2023-06-10T15:17:23;27.30;99.90
54082;DHT22;39986;50.770;0.266;2023-06-10T15:19:49;27.20;99.90
54082;DHT22;39986;50.770;0.266;2023-06-10T15:22:14;27.20;99.90
54082;DHT22;39986;50.770;0.266;2023-06-10T15:24:40;27.30;99.90
54082;DHT22;39986;50.770;0.266;2023-06-10T15:27:05;27.40;99.90
54082;DHT22;39986;50.770;0.266;2023-06-10T15:29:32;27.50;99.90
54082;DHT22;39986;50.770;0.266;2023-06-10T15:31:57;27.20;99.90
54082;DHT22;39986;50.770;0.266;2023-06-10T15:34:23;27.10;99.90
54082;DHT22;39986;50.770;0.266;2023-06-10T15:36:48;27.10;99.90